sensor_id;sensor_type;location;lat;lon;timestamp;temperature;humidity
59162;DHT22;44942;48.936;8.260;2023-06-14T00:04:12;25.00;36.10
59162;DHT22;44942;48.936;8.260;2023-06-14T00:09:13;25.00;36.40
59162;DHT22;44942;48.936;8.260;2023-06-14T00:14:14;24.90;36.60
59162;DHT22;44942;48.936;8.260;2023-06-14T00:19:14;24.90;36.90
59162;DHT22;44942;48.936;8.260;2023-06-14T00:24:16;24.80;37.00
59162;DHT22;44942;48.936;8.260;2023-06-14T00:29:16;24.80;37.10
59162;DHT22;44942;48.936;8.260;2023-06-14T00:34:17;24.70;37.30
59162;DHT22;44942;48.936;8.260;2023-06-14T00:39:17;24.70;37.40
59162;DHT22;44942;48.936;8.260;2023-06-14T00:44:17;24.60;37.60
59162;DHT22;44942;48.936;8.260;2023-06-14T00:49:18;24.60;37.70
59162;DHT22;44942;48.936;8.260;2023-06-14T00:54:19;24.60;37.90
59162;DHT22;44942;48.936;8.260;2023-06-14T00:59:20;24.60;38.00
59162;DHT22;44942;48.936;8.260;2023-06-14T01:04:20;24.50;38.20
59162;DHT22;44942;48.936;8.260;2023-06-14T01:09:27;24.50;38.20
59162;DHT22;44942;48.936;8.260;2023-06-14T01:14:32;24.50;38.20
59162;DHT22;44942;48.936;8.260;2023-06-14T01:19:34;24.40;38.20
59162;DHT22;44942;48.936;8.260;2023-06-14T01:24:34;24.40;38.20
59162;DHT22;44942;48.936;8.260;2023-06-14T01:29:35;24.40;38.20
59162;DHT22;44942;48.936;8.260;2023-06-14T01:34:36;24.30;38.10
59162;DHT22;44942;48.936;8.260;2023-06-14T01:39:36;24.30;38.20
59162;DHT22;44942;48.936;8.260;2023-06-14T01:44:37;24.20;38.00
59162;DHT22;44942;48.936;8.260;2023-06-14T01:49:38;24.20;37.90
59162;DHT22;44942;48.936;8.260;2023-06-14T01:54:38;24.20;37.80
59162;DHT22;44942;48.936;8.260;2023-06-14T01:59:42;24.20;37.80
59162;DHT22;44942;48.936;8.260;2023-06-14T02:04:48;24.20;37.90
59162;DHT22;44942;48.936;8.260;2023-06-14T02:09:49;24.10;37.80
59162;DHT22;44942;48.936;8.260;2023-06-14T02:14:49;24.10;37.90
59162;DHT22;44942;48.936;8.260;2023-06-14T02:19:50;24.00;37.90
59162;DHT22;44942;48.936;8.260;2023-06-14T02:24:50;24.00;38.00
59162;DHT22;44942;48.936;8.260;2023-06-14T02:29:52;23.90;38.10
59162;DHT22;44942;48.936;8.260;2023-06-14T02:34:52;23.90;38.20
59162;DHT22;44942;48.936;8.260;2023-06-14T02:39:53;23.90;38.10
59162;DHT22;44942;48.936;8.260;2023-06-14T02:44:54;23.90;38.10
59162;DHT22;44942;48.936;8.260;2023-06-14T02:49:54;23.90;38.10
59162;DHT22;44942;48.936;8.260;2023-06-14T02:54:54;23.80;38.10
59162;DHT22;44942;48.936;8.260;2023-06-14T02:59:55;23.90;38.20
59162;DHT22;44942;48.936;8.260;2023-06-14T03:04:55;23.80;38.20
59162;DHT22;44942;48.936;8.260;2023-06-14T03:09:56;23.80;38.20
59162;DHT22;44942;48.936;8.260;2023-06-14T03:14:57;23.80;38.20
59162;DHT22;44942;48.936;8.260;2023-06-14T03:19:57;23.80;38.30
59162;DHT22;44942;48.936;8.260;2023-06-14T03:24:58;23.70;38.30
59162;DHT22;44942;48.936;8.260;2023-06-14T03:29:59;23.70;38.40
59162;DHT22;44942;48.936;8.260;2023-06-14T03:35:00;23.70;38.50
59162;DHT22;44942;48.936;8.260;2023-06-14T03:40:00;23.70;38.60
59162;DHT22;44942;48.936;8.260;2023-06-14T03:45:01;23.70;38.80
59162;DHT22;44942;48.936;8.260;2023-06-14T03:50:02;23.70;38.90
59162;DHT22;44942;48.936;8.260;2023-06-14T03:55:02;23.70;38.90
59162;DHT22;44942;48.936;8.260;2023-06-14T04:00:03;23.60;38.80
59162;DHT22;44942;48.936;8.260;2023-06-14T04:05:06;23.70;38.80
59162;DHT22;44942;48.936;8.260;2023-06-14T04:10:08;23.70;38.70
59162;DHT22;44942;48.936;8.260;2023-06-14T04:15:09;23.60;38.60
59162;DHT22;44942;48.936;8.260;2023-06-14T04:20:10;23.60;38.70
59162;DHT22;44942;48.936;8.260;2023-06-14T04:25:11;23.60;38.70
59162;DHT22;44942;48.936;8.260;2023-06-14T04:30:12;23.60;38.60
59162;DHT22;44942;48.936;8.260;2023-06-14T04:35:13;23.60;38.70
59162;DHT22;44942;48.936;8.260;2023-06-14T04:40:14;23.60;38.60
59162;DHT22;44942;48.936;8.260;2023-06-14T04:45:15;23.60;38.80
59162;DHT22;44942;48.936;8.260;2023-06-14T04:50:16;23.70;38.80
59162;DHT22;44942;48.936;8.260;2023-06-14T04:55:18;23.70;38.90
59162;DHT22;44942;48.936;8.260;2023-06-14T05:00:20;23.70;38.90
59162;DHT22;44942;48.936;8.260;2023-06-14T05:05:21;23.70;38.90
59162;DHT22;44942;48.936;8.260;2023-06-14T05:10:21;23.70;38.90
59162;DHT22;44942;48.936;8.260;2023-06-14T05:15:22;23.70;38.90
59162;DHT22;44942;48.936;8.260;2023-06-14T05:20:25;23.70;39.00
59162;DHT22;44942;48.936;8.260;2023-06-14T05:25:26;23.80;39.10
59162;DHT22;44942;48.936;8.260;2023-06-14T05:30:28;23.80;39.10
59162;DHT22;44942;48.936;8.260;2023-06-14T05:35:30;23.80;39.00
59162;DHT22;44942;48.936;8.260;2023-06-14T05:40:31;23.90;39.00
59162;DHT22;44942;48.936;8.260;2023-06-14T05:45:31;23.80;39.00
59162;DHT22;44942;48.936;8.260;2023-06-14T05:50:32;23.90;39.10
59162;DHT22;44942;48.936;8.260;2023-06-14T05:55:32;23.90;39.00
59162;DHT22;44942;48.936;8.260;2023-06-14T06:00:33;23.90;38.90
59162;DHT22;44942;48.936;8.260;2023-06-14T06:05:33;24.00;38.80
59162;DHT22;44942;48.936;8.260;2023-06-14T06:10:34;24.00;38.70
59162;DHT22;44942;48.936;8.260;2023-06-14T06:15:35;24.10;38.60
59162;DHT22;44942;48.936;8.260;2023-06-14T06:20:35;24.10;38.50
59162;DHT22;44942;48.936;8.260;2023-06-14T06:25:36;24.10;38.40
59162;DHT22;44942;48.936;8.260;2023-06-14T06:30:37;24.10;38.30
59162;DHT22;44942;48.936;8.260;2023-06-14T06:35:37;24.20;38.40
59162;DHT22;44942;48.936;8.260;2023-06-14T06:40:40;24.20;38.30
59162;DHT22;44942;48.936;8.260;2023-06-14T06:45:41;24.20;38.40
59162;DHT22;44942;48.936;8.260;2023-06-14T06:50:41;24.30;38.50
59162;DHT22;44942;48.936;8.260;2023-06-14T06:55:42;24.30;38.60
59162;DHT22;44942;48.936;8.260;2023-06-14T07:00:42;24.30;38.50
59162;DHT22;44942;48.936;8.260;2023-06-14T07:05:43;24.40;38.50
59162;DHT22;44942;48.936;8.260;2023-06-14T07:10:43;24.40;38.40
59162;DHT22;44942;48.936;8.260;2023-06-14T07:15:44;24.40;38.40
59162;DHT22;44942;48.936;8.260;2023-06-14T07:20:44;24.40;38.40
59162;DHT22;44942;48.936;8.260;2023-06-14T07:25:45;24.50;38.40
59162;DHT22;44942;48.936;8.260;2023-06-14T07:30:45;24.50;38.50
59162;DHT22;44942;48.936;8.260;2023-06-14T07:35:46;24.60;38.50
59162;DHT22;44942;48.936;8.260;2023-06-14T07:40:47;24.60;38.60
59162;DHT22;44942;48.936;8.260;2023-06-14T07:45:48;24.60;38.60
59162;DHT22;44942;48.936;8.260;2023-06-14T07:50:48;24.60;38.60
59162;DHT22;44942;48.936;8.260;2023-06-14T07:55:49;24.70;38.60
59162;DHT22;44942;48.936;8.260;2023-06-14T08:00:50;24.70;38.60
59162;DHT22;44942;48.936;8.260;2023-06-14T08:05:51;24.70;38.60
59162;DHT22;44942;48.936;8.260;2023-06-14T08:10:51;24.80;38.60
59162;DHT22;44942;48.936;8.260;2023-06-14T08:15:52;24.80;38.50
59162;DHT22;44942;48.936;8.260;2023-06-14T08:20:52;24.80;38.50
59162;DHT22;44942;48.936;8.260;2023-06-14T08:25:54;24.80;38.40
59162;DHT22;44942;48.936;8.260;2023-06-14T08:30:55;24.90;38.50
59162;DHT22;44942;48.936;8.260;2023-06-14T08:35:56;24.90;38.40
59162;DHT22;44942;48.936;8.260;2023-06-14T08:40:59;25.00;38.40
59162;DHT22;44942;48.936;8.260;2023-06-14T08:46:02;25.00;38.40
59162;DHT22;44942;48.936;8.260;2023-06-14T08:51:03;25.00;38.40
59162;DHT22;44942;48.936;8.260;2023-06-14T08:56:04;25.00;38.30
59162;DHT22;44942;48.936;8.260;2023-06-14T09:01:05;25.10;38.30
59162;DHT22;44942;48.936;8.260;2023-06-14T09:06:08;25.10;38.30
59162;DHT22;44942;48.936;8.260;2023-06-14T09:11:14;25.20;38.30
59162;DHT22;44942;48.936;8.260;2023-06-14T09:16:15;25.20;38.30
59162;DHT22;44942;48.936;8.260;2023-06-14T09:21:16;25.20;38.30
59162;DHT22;44942;48.936;8.260;2023-06-14T09:26:18;25.30;38.30
59162;DHT22;44942;48.936;8.260;2023-06-14T09:31:20;25.30;38.30
59162;DHT22;44942;48.936;8.260;2023-06-14T09:36:21;25.30;38.30
59162;DHT22;44942;48.936;8.260;2023-06-14T09:46:32;25.30;38.20
59162;DHT22;44942;48.936;8.260;2023-06-14T09:51:33;25.30;38.20
59162;DHT22;44942;48.936;8.260;2023-06-14T09:56:36;25.40;38.20
59162;DHT22;44942;48.936;8.260;2023-06-14T10:01:41;25.40;38.10
59162;DHT22;44942;48.936;8.260;2023-06-14T10:06:43;25.50;38.20
59162;DHT22;44942;48.936;8.260;2023-06-14T10:11:43;25.50;38.90
59162;DHT22;44942;48.936;8.260;2023-06-14T10:27:06;25.60;38.10
59162;DHT22;44942;48.936;8.260;2023-06-14T10:32:10;25.60;38.10
59162;DHT22;44942;48.936;8.260;2023-06-14T10:37:12;25.60;38.00
59162;DHT22;44942;48.936;8.260;2023-06-14T10:42:13;25.60;37.90
59162;DHT22;44942;48.936;8.260;2023-06-14T10:52:22;25.70;37.80
59162;DHT22;44942;48.936;8.260;2023-06-14T10:57:23;25.70;37.80
59162;DHT22;44942;48.936;8.260;2023-06-14T11:13:05;25.80;37.80
59162;DHT22;44942;48.936;8.260;2023-06-14T11:18:07;25.80;37.70
59162;DHT22;44942;48.936;8.260;2023-06-14T11:23:08;25.80;37.60
59162;DHT22;44942;48.936;8.260;2023-06-14T11:28:08;25.90;37.50
59162;DHT22;44942;48.936;8.260;2023-06-14T11:33:14;25.90;37.40
59162;DHT22;44942;48.936;8.260;2023-06-14T11:38:17;25.90;37.30
59162;DHT22;44942;48.936;8.260;2023-06-14T11:43:18;25.90;37.20
59162;DHT22;44942;48.936;8.260;2023-06-14T11:48:18;26.00;37.10
59162;DHT22;44942;48.936;8.260;2023-06-14T11:53:19;26.00;37.00
59162;DHT22;44942;48.936;8.260;2023-06-14T11:58:19;26.00;36.90
59162;DHT22;44942;48.936;8.260;2023-06-14T12:03:23;26.10;36.90
59162;DHT22;44942;48.936;8.260;2023-06-14T12:08:31;26.10;36.90
59162;DHT22;44942;48.936;8.260;2023-06-14T12:13:34;26.10;36.90
59162;DHT22;44942;48.936;8.260;2023-06-14T12:18:35;26.10;36.80
59162;DHT22;44942;48.936;8.260;2023-06-14T12:23:46;26.10;36.70
59162;DHT22;44942;48.936;8.260;2023-06-14T12:28:47;26.20;36.80
59162;DHT22;44942;48.936;8.260;2023-06-14T12:33:47;26.20;36.80
59162;DHT22;44942;48.936;8.260;2023-06-14T12:38:49;26.20;36.80
59162;DHT22;44942;48.936;8.260;2023-06-14T12:43:53;26.20;36.70
59162;DHT22;44942;48.936;8.260;2023-06-14T12:48:53;26.20;36.70
59162;DHT22;44942;48.936;8.260;2023-06-14T12:53:54;26.30;36.70
59162;DHT22;44942;48.936;8.260;2023-06-14T12:58:55;26.30;36.60
59162;DHT22;44942;48.936;8.260;2023-06-14T13:03:55;26.40;36.60
59162;DHT22;44942;48.936;8.260;2023-06-14T13:08:56;26.50;36.60
59162;DHT22;44942;48.936;8.260;2023-06-14T13:13:58;26.50;36.60
59162;DHT22;44942;48.936;8.260;2023-06-14T13:18:58;26.50;36.50
59162;DHT22;44942;48.936;8.260;2023-06-14T13:23:59;26.50;36.50
59162;DHT22;44942;48.936;8.260;2023-06-14T13:28:59;26.60;36.40
59162;DHT22;44942;48.936;8.260;2023-06-14T13:34:00;26.60;36.20
59162;DHT22;44942;48.936;8.260;2023-06-14T13:39:00;26.60;36.00
59162;DHT22;44942;48.936;8.260;2023-06-14T13:44:01;26.70;36.00
59162;DHT22;44942;48.936;8.260;2023-06-14T13:49:04;26.70;35.90
59162;DHT22;44942;48.936;8.260;2023-06-14T13:54:05;26.70;35.80
59162;DHT22;44942;48.936;8.260;2023-06-14T13:59:06;26.70;35.80
59162;DHT22;44942;48.936;8.260;2023-06-14T14:04:06;26.80;35.80
59162;DHT22;44942;48.936;8.260;2023-06-14T14:09:07;26.70;35.70
59162;DHT22;44942;48.936;8.260;2023-06-14T14:14:08;26.80;35.80
59162;DHT22;44942;48.936;8.260;2023-06-14T14:19:08;26.80;35.80
59162;DHT22;44942;48.936;8.260;2023-06-14T14:24:09;26.80;35.80
59162;DHT22;44942;48.936;8.260;2023-06-14T14:29:09;26.90;35.80
59162;DHT22;44942;48.936;8.260;2023-06-14T14:34:11;26.90;35.80
59162;DHT22;44942;48.936;8.260;2023-06-14T14:39:12;26.90;35.80
59162;DHT22;44942;48.936;8.260;2023-06-14T14:44:12;26.90;35.70
59162;DHT22;44942;48.936;8.260;2023-06-14T14:49:13;26.90;35.70
59162;DHT22;44942;48.936;8.260;2023-06-14T14:54:13;27.00;35.60
59162;DHT22;44942;48.936;8.260;2023-06-14T14:59:14;26.90;35.60
59162;DHT22;44942;48.936;8.260;2023-06-14T15:04:14;27.00;35.60
59162;DHT22;44942;48.936;8.260;2023-06-14T15:09:15;27.00;35.50
59162;DHT22;44942;48.936;8.260;2023-06-14T15:14:15;27.00;35.50
59162;DHT22;44942;48.936;8.260;2023-06-14T15:19:17;27.00;35.50
59162;DHT22;44942;48.936;8.260;2023-06-14T15:24:18;27.10;35.50
59162;DHT22;44942;48.936;8.260;2023-06-14T15:29:18;27.10;35.30
59162;DHT22;44942;48.936;8.260;2023-06-14T15:34:19;27.10;35.30
59162;DHT22;44942;48.936;8.260;2023-06-14T15:39:20;27.10;35.30
59162;DHT22;44942;48.936;8.260;2023-06-14T15:44:20;27.20;35.40
59162;DHT22;44942;48.936;8.260;2023-06-14T15:49:21;27.20;35.40
59162;DHT22;44942;48.936;8.260;2023-06-14T15:54:21;27.20;35.40
59162;DHT22;44942;48.936;8.260;2023-06-14T15:59:22;27.20;35.40
59162;DHT22;44942;48.936;8.260;2023-06-14T16:04:22;27.30;35.40
59162;DHT22;44942;48.936;8.260;2023-06-14T16:09:23;27.30;35.40
59162;DHT22;44942;48.936;8.260;2023-06-14T16:14:23;27.40;35.60
59162;DHT22;44942;48.936;8.260;2023-06-14T16:19:23;27.40;35.50
59162;DHT22;44942;48.936;8.260;2023-06-14T16:24:24;27.40;35.60
59162;DHT22;44942;48.936;8.260;2023-06-14T16:29:24;27.50;35.60
59162;DHT22;44942;48.936;8.260;2023-06-14T16:34:25;27.50;35.60
59162;DHT22;44942;48.936;8.260;2023-06-14T16:39:26;27.50;35.60
59162;DHT22;44942;48.936;8.260;2023-06-14T16:44:26;27.60;35.60
59162;DHT22;44942;48.936;8.260;2023-06-14T16:49:27;27.60;35.60
59162;DHT22;44942;48.936;8.260;2023-06-14T16:54:27;27.60;35.60
59162;DHT22;44942;48.936;8.260;2023-06-14T16:59:28;27.70;35.60
59162;DHT22;44942;48.936;8.260;2023-06-14T17:04:28;27.70;35.60
59162;DHT22;44942;48.936;8.260;2023-06-14T17:09:29;27.70;35.60
59162;DHT22;44942;48.936;8.260;2023-06-14T17:14:30;27.70;35.50
59162;DHT22;44942;48.936;8.260;2023-06-14T17:19:30;27.80;35.60
59162;DHT22;44942;48.936;8.260;2023-06-14T17:24:30;27.80;35.50
59162;DHT22;44942;48.936;8.260;2023-06-14T17:29:31;27.80;35.50
59162;DHT22;44942;48.936;8.260;2023-06-14T17:34:31;27.80;35.50
59162;DHT22;44942;48.936;8.260;2023-06-14T17:39:32;27.80;35.40
59162;DHT22;44942;48.936;8.260;2023-06-14T17:44:33;27.80;35.50
59162;DHT22;44942;48.936;8.260;2023-06-14T17:49:33;27.80;35.50
59162;DHT22;44942;48.936;8.260;2023-06-14T17:54:34;27.70;35.20
59162;DHT22;44942;48.936;8.260;2023-06-14T17:59:34;27.70;35.20
59162;DHT22;44942;48.936;8.260;2023-06-14T18:04:34;27.70;35.20
59162;DHT22;44942;48.936;8.260;2023-06-14T18:09:35;27.70;35.00
59162;DHT22;44942;48.936;8.260;2023-06-14T18:14:35;27.70;35.20
59162;DHT22;44942;48.936;8.260;2023-06-14T18:19:36;27.70;35.00
59162;DHT22;44942;48.936;8.260;2023-06-14T18:24:37;27.60;34.80
59162;DHT22;44942;48.936;8.260;2023-06-14T18:29:37;27.60;34.60
59162;DHT22;44942;48.936;8.260;2023-06-14T18:34:38;27.60;34.70
59162;DHT22;44942;48.936;8.260;2023-06-14T18:39:38;27.60;34.60
59162;DHT22;44942;48.936;8.260;2023-06-14T18:44:39;27.60;34.60
59162;DHT22;44942;48.936;8.260;2023-06-14T18:49:40;27.60;34.70
59162;DHT22;44942;48.936;8.260;2023-06-14T18:54:41;27.60;34.70
59162;DHT22;44942;48.936;8.260;2023-06-14T18:59:41;27.50;34.60
59162;DHT22;44942;48.936;8.260;2023-06-14T19:04:42;27.50;34.50
59162;DHT22;44942;48.936;8.260;2023-06-14T19:09:42;27.50;34.40
59162;DHT22;44942;48.936;8.260;2023-06-14T19:14:42;27.50;34.30
59162;DHT22;44942;48.936;8.260;2023-06-14T19:19:43;27.50;34.40
59162;DHT22;44942;48.936;8.260;2023-06-14T19:24:45;27.40;34.40
59162;DHT22;44942;48.936;8.260;2023-06-14T19:29:45;27.40;34.40
59162;DHT22;44942;48.936;8.260;2023-06-14T19:34:46;27.40;34.30
59162;DHT22;44942;48.936;8.260;2023-06-14T19:39:46;27.40;34.40
59162;DHT22;44942;48.936;8.260;2023-06-14T19:44:47;27.30;34.30
59162;DHT22;44942;48.936;8.260;2023-06-14T19:49:47;27.30;34.30
59162;DHT22;44942;48.936;8.260;2023-06-14T19:54:48;27.30;34.30
59162;DHT22;44942;48.936;8.260;2023-06-14T19:59:48;27.20;34.20
59162;DHT22;44942;48.936;8.260;2023-06-14T20:04:48;27.20;34.20
59162;DHT22;44942;48.936;8.260;2023-06-14T20:09:49;27.20;34.30
59162;DHT22;44942;48.936;8.260;2023-06-14T20:14:50;27.10;34.30
59162;DHT22;44942;48.936;8.260;2023-06-14T20:19:51;27.10;34.30
59162;DHT22;44942;48.936;8.260;2023-06-14T20:24:53;27.10;34.40
59162;DHT22;44942;48.936;8.260;2023-06-14T20:29:53;27.00;34.40
59162;DHT22;44942;48.936;8.260;2023-06-14T20:34:54;27.00;34.50
59162;DHT22;44942;48.936;8.260;2023-06-14T20:39:55;26.90;34.50
59162;DHT22;44942;48.936;8.260;2023-06-14T20:45:05;26.90;34.80
59162;DHT22;44942;48.936;8.260;2023-06-14T20:50:06;26.90;34.80
59162;DHT22;44942;48.936;8.260;2023-06-14T20:55:08;26.80;34.90
59162;DHT22;44942;48.936;8.260;2023-06-14T21:00:08;26.80;35.10
59162;DHT22;44942;48.936;8.260;2023-06-14T21:05:12;26.80;35.30
59162;DHT22;44942;48.936;8.260;2023-06-14T21:10:12;26.70;35.30
59162;DHT22;44942;48.936;8.260;2023-06-14T21:15:13;26.70;35.40
59162;DHT22;44942;48.936;8.260;2023-06-14T21:20:13;26.60;35.50
59162;DHT22;44942;48.936;8.260;2023-06-14T21:25:14;26.60;35.80
59162;DHT22;44942;48.936;8.260;2023-06-14T21:30:15;26.50;35.80
59162;DHT22;44942;48.936;8.260;2023-06-14T21:35:16;26.50;36.10
59162;DHT22;44942;48.936;8.260;2023-06-14T21:40:17;26.40;36.20
59162;DHT22;44942;48.936;8.260;2023-06-14T21:45:18;26.40;36.40
59162;DHT22;44942;48.936;8.260;2023-06-14T21:50:18;26.30;36.60
59162;DHT22;44942;48.936;8.260;2023-06-14T21:55:19;26.30;36.60
59162;DHT22;44942;48.936;8.260;2023-06-14T22:00:23;26.20;36.60
59162;DHT22;44942;48.936;8.260;2023-06-14T22:05:24;26.20;36.60
59162;DHT22;44942;48.936;8.260;2023-06-14T22:10:25;26.10;36.60
59162;DHT22;44942;48.936;8.260;2023-06-14T22:15:26;26.10;36.70
59162;DHT22;44942;48.936;8.260;2023-06-14T22:20:27;26.10;36.80
59162;DHT22;44942;48.936;8.260;2023-06-14T22:25:29;26.00;36.90
59162;DHT22;44942;48.936;8.260;2023-06-14T22:30:30;26.00;37.10
59162;DHT22;44942;48.936;8.260;2023-06-14T22:35:32;25.90;37.20
59162;DHT22;44942;48.936;8.260;2023-06-14T22:40:33;25.90;37.40
59162;DHT22;44942;48.936;8.260;2023-06-14T22:45:34;25.80;37.60
59162;DHT22;44942;48.936;8.260;2023-06-14T22:50:37;25.80;37.80
59162;DHT22;44942;48.936;8.260;2023-06-14T22:55:37;25.70;38.00
59162;DHT22;44942;48.936;8.260;2023-06-14T23:00:38;25.70;38.40
59162;DHT22;44942;48.936;8.260;2023-06-14T23:05:39;25.60;38.50
59162;DHT22;44942;48.936;8.260;2023-06-14T23:10:41;25.60;38.90
59162;DHT22;44942;48.936;8.260;2023-06-14T23:15:42;25.50;38.90
59162;DHT22;44942;48.936;8.260;2023-06-14T23:20:42;25.50;39.10
59162;DHT22;44942;48.936;8.260;2023-06-14T23:25:43;25.40;39.20
59162;DHT22;44942;48.936;8.260;2023-06-14T23:30:45;25.40;39.30
59162;DHT22;44942;48.936;8.260;2023-06-14T23:35:46;25.30;39.30
59162;DHT22;44942;48.936;8.260;2023-06-14T23:40:47;25.30;39.50
59162;DHT22;44942;48.936;8.260;2023-06-14T23:45:50;25.30;39.60
59162;DHT22;44942;48.936;8.260;2023-06-14T23:50:53;25.30;39.60
59162;DHT22;44942;48.936;8.260;2023-06-14T23:55:54;25.20;39.70
